Platteville, Colorado
Current Conditions -  °F | °C
As of 11:15 AM on Thursday 27 Nov 2014 (Local Time) from KEIK Reporting Station
Clear Clear  
Wind Chill: 66°   Ceiling: Unl
Heat Index: 66°   Visibility: 10mi
Dew Point: 11°   Wind: 13mph
Humidity: 12%   Direction: 250°WSW
Pressure: 30.17"   Gusts: 18mph
Location:  40.21°N, 104.82°W
Report Text: KEIK 271815Z AUTO 25011G16KT 10SM CLR 19/M12 A3017 RMK AO2 T01901118
Loading
Personal Weather Stations






























Interactive Weather Map New forecast layout! Learn more

10-Day Weather Forecast

Advertisements
Track Severe Weather on mobile